Time;durP1;ratioP1;P1;durP2;ratioP2;P2;SDS_P1;SDS_P2;PMS_P1;PMS_P2;Temp;Humidity;BMP_temperature;BMP_pressure;BME280_temperature;BME280_humidity;BME280_pressure;Samples;Min_cycle;Max_cycle;Signal;HPM_P1;HPM_P2
2023/09/06 00:01:13;;;;;;;3.00;2.80;;;;;;;;;;5086120;28;20380;-81
2023/09/06 00:03:39;;;;;;;3.47;3.17;;;;;;;;;;5074175;28;20384;-81
2023/09/06 00:06:06;;;;;;;3.10;2.75;;;;;;;;;;5073829;28;20376;-80
2023/09/06 00:08:34;;;;;;;2.90;2.70;;;;;;;;;;5056087;28;20392;-81
2023/09/06 00:11:04;;;;;;;3.03;2.72;;;;;;;;;;5073648;28;20406;-81
2023/09/06 00:13:33;;;;;;;3.47;2.97;;;;;;;;;;5073935;28;20411;-81
2023/09/06 00:16:03;;;;;;;3.00;2.80;;;;;;;;;;5074219;28;20390;-81
2023/09/06 00:18:29;;;;;;;3.17;2.90;;;;;;;;;;5074132;28;20372;-81
2023/09/06 00:20:57;;;;;;;3.03;2.83;;;;;;;;;;5073848;28;20875;-81
2023/09/06 00:23:24;;;;;;;4.05;3.10;;;;;;;;;;5073729;28;20380;-82
2023/09/06 00:25:51;;;;;;;3.03;2.80;;;;;;;;;;5066722;28;20390;-81
2023/09/06 00:28:19;;;;;;;2.88;2.67;;;;;;;;;;5072838;28;20834;-81
2023/09/06 00:30:45;;;;;;;3.30;2.85;;;;;;;;;;5073887;28;20423;-81
2023/09/06 00:33:12;;;;;;;3.15;2.85;;;;;;;;;;5073602;28;20477;-81
2023/09/06 00:35:41;;;;;;;3.00;2.80;;;;;;;;;;5073710;28;20382;-81
2023/09/06 00:38:07;;;;;;;4.20;3.33;;;;;;;;;;5074045;28;20411;-81
2023/09/06 00:40:42;;;;;;;3.10;2.80;;;;;;;;;;5073312;28;20826;-81
2023/09/06 00:43:08;;;;;;;3.30;3.10;;;;;;;;;;5074725;28;20383;-81
2023/09/06 00:45:38;;;;;;;3.80;3.50;;;;;;;;;;5056037;28;20394;-81
2023/09/06 00:48:06;;;;;;;3.10;2.80;;;;;;;;;;5072680;28;20415;-81
2023/09/06 00:50:34;;;;;;;3.37;3.07;;;;;;;;;;5072741;28;20888;-81
2023/09/06 00:53:00;;;;;;;4.30;3.00;;;;;;;;;;5073000;28;20453;-81
2023/09/06 00:55:26;;;;;;;3.63;3.33;;;;;;;;;;5072666;28;20915;-81
2023/09/06 00:57:52;;;;;;;3.30;3.05;;;;;;;;;;5073293;28;20384;-80
2023/09/06 01:00:20;;;;;;;3.50;3.20;;;;;;;;;;5073164;28;20466;-80
2023/09/06 01:02:47;;;;;;;3.60;3.30;;;;;;;;;;5073214;28;20394;-80
2023/09/06 01:05:13;;;;;;;3.10;2.90;;;;;;;;;;5073340;28;20372;-81
2023/09/06 01:07:41;;;;;;;4.20;3.20;;;;;;;;;;5072409;28;20423;-80
2023/09/06 01:10:07;;;;;;;3.20;2.90;;;;;;;;;;5073576;28;20399;-80
2023/09/06 01:12:36;;;;;;;4.32;3.42;;;;;;;;;;5073028;28;20402;-80
2023/09/06 01:15:06;;;;;;;3.50;3.20;;;;;;;;;;5073603;28;20881;-80
2023/09/06 01:17:36;;;;;;;3.50;3.20;;;;;;;;;;5072895;28;20411;-81
2023/09/06 01:20:15;;;;;;;3.50;3.20;;;;;;;;;;5073184;28;20390;-81
2023/09/06 01:22:43;;;;;;;3.75;3.45;;;;;;;;;;5073193;28;20376;-80
2023/09/06 01:25:11;;;;;;;3.30;3.00;;;;;;;;;;5081453;28;20688;-81
2023/09/06 01:27:37;;;;;;;3.58;3.28;;;;;;;;;;5097169;28;20416;-81
2023/09/06 01:30:04;;;;;;;3.85;3.55;;;;;;;;;;5079418;28;20379;-81
2023/09/06 01:32:29;;;;;;;3.50;3.20;;;;;;;;;;5076214;28;20380;-81
2023/09/06 01:34:55;;;;;;;3.22;3.03;;;;;;;;;;5076304;28;20423;-81
2023/09/06 01:37:21;;;;;;;3.83;3.53;;;;;;;;;;5076332;28;20426;-81
2023/09/06 01:39:48;;;;;;;3.60;3.30;;;;;;;;;;5077423;28;20403;-81
2023/09/06 01:42:14;;;;;;;3.50;3.20;;;;;;;;;;5076702;28;20490;-81
2023/09/06 01:44:39;;;;;;;3.70;3.40;;;;;;;;;;5076303;28;20379;-80
2023/09/06 01:47:06;;;;;;;3.72;3.30;;;;;;;;;;5076368;28;20402;-80
2023/09/06 01:49:32;;;;;;;3.58;3.28;;;;;;;;;;5076251;28;20458;-80
2023/09/06 01:52:00;;;;;;;3.55;3.25;;;;;;;;;;5075207;28;20779;-81
2023/09/06 01:54:26;;;;;;;3.25;3.05;;;;;;;;;;5075940;28;20408;-81
2023/09/06 01:56:52;;;;;;;3.80;3.42;;;;;;;;;;5075234;28;20852;-80
2023/09/06 01:59:18;;;;;;;4.50;3.20;;;;;;;;;;5076296;28;20453;-81
2023/09/06 02:01:44;;;;;;;3.60;3.30;;;;;;;;;;5075325;28;20396;-81
2023/09/06 02:04:10;;;;;;;3.73;3.43;;;;;;;;;;5076015;28;20437;-80
2023/09/06 02:06:36;;;;;;;3.60;3.30;;;;;;;;;;5076123;28;20436;-81
2023/09/06 02:09:03;;;;;;;3.30;3.00;;;;;;;;;;5076091;28;20387;-81
2023/09/06 02:11:31;;;;;;;3.67;3.33;;;;;;;;;;5068090;28;20403;-80
2023/09/06 02:13:57;;;;;;;3.53;3.22;;;;;;;;;;5049939;28;20382;-80
2023/09/06 02:16:24;;;;;;;3.72;3.42;;;;;;;;;;5090658;28;20398;-80
2023/09/06 02:18:50;;;;;;;3.78;3.47;;;;;;;;;;5077186;28;20863;-80
2023/09/06 02:21:16;;;;;;;3.60;3.30;;;;;;;;;;5093807;28;20427;-80
2023/09/06 02:23:42;;;;;;;3.50;3.20;;;;;;;;;;5089202;28;20792;-80
2023/09/06 02:26:08;;;;;;;3.80;3.50;;;;;;;;;;5078620;28;20432;-80
2023/09/06 02:28:35;;;;;;;3.70;3.40;;;;;;;;;;5068852;28;20807;-81
2023/09/06 02:31:01;;;;;;;3.95;3.60;;;;;;;;;;5075712;28;20383;-81
2023/09/06 02:33:28;;;;;;;3.75;3.45;;;;;;;;;;5075874;28;20392;-81
2023/09/06 02:35:54;;;;;;;3.50;3.20;;;;;;;;;;5085714;28;20382;-80
2023/09/06 02:38:20;;;;;;;3.78;3.40;;;;;;;;;;5075812;28;20753;-80
2023/09/06 02:40:46;;;;;;;3.58;3.28;;;;;;;;;;5075294;28;20395;-80
2023/09/06 02:43:13;;;;;;;3.53;3.22;;;;;;;;;;5075357;28;20429;-80
2023/09/06 02:45:39;;;;;;;4.00;3.60;;;;;;;;;;5075578;28;20830;-80
2023/09/06 02:48:12;;;;;;;4.20;3.80;;;;;;;;;;5074607;28;20392;-80
2023/09/06 02:50:40;;;;;;;3.92;3.63;;;;;;;;;;5075315;28;20380;-81
2023/09/06 02:53:15;;;;;;;4.10;3.58;;;;;;;;;;5088930;28;20461;-80
2023/09/06 02:55:41;;;;;;;3.92;3.60;;;;;;;;;;5063165;28;20913;-80
2023/09/06 02:58:10;;;;;;;4.10;3.80;;;;;;;;;;5075202;28;20386;-81
2023/09/06 03:00:40;;;;;;;3.50;3.20;;;;;;;;;;5073815;28;20392;-80
2023/09/06 03:03:06;;;;;;;3.75;3.45;;;;;;;;;;5067503;28;20447;-80
2023/09/06 03:05:32;;;;;;;3.40;3.17;;;;;;;;;;5075100;28;20419;-80
2023/09/06 03:07:58;;;;;;;3.65;3.35;;;;;;;;;;5074614;28;20909;-80
2023/09/06 03:10:24;;;;;;;3.60;3.30;;;;;;;;;;5074975;28;20418;-80
2023/09/06 03:12:54;;;;;;;4.50;3.22;;;;;;;;;;5074850;28;20434;-80
2023/09/06 03:15:24;;;;;;;3.35;3.05;;;;;;;;;;5074988;28;20874;-80
2023/09/06 03:17:53;;;;;;;3.75;3.45;;;;;;;;;;5074332;28;20395;-80
2023/09/06 03:20:21;;;;;;;3.90;3.60;;;;;;;;;;5075429;28;20827;-81
2023/09/06 03:22:50;;;;;;;3.80;3.50;;;;;;;;;;5074743;28;20395;-80
2023/09/06 03:25:16;;;;;;;3.95;3.55;;;;;;;;;;5075034;28;20412;-80
2023/09/06 03:27:42;;;;;;;3.70;3.40;;;;;;;;;;5088641;28;20470;-82
2023/09/06 03:30:09;;;;;;;3.73;3.43;;;;;;;;;;5074842;28;20934;-81
2023/09/06 03:32:35;;;;;;;4.15;3.75;;;;;;;;;;5074287;28;20375;-81
2023/09/06 03:35:04;;;;;;;3.60;3.30;;;;;;;;;;5074308;28;20892;-80
2023/09/06 03:37:30;;;;;;;3.90;3.50;;;;;;;;;;5074465;28;20487;-80
2023/09/06 03:39:56;;;;;;;3.70;3.40;;;;;;;;;;5074666;28;20398;-80
2023/09/06 03:42:22;;;;;;;3.42;3.20;;;;;;;;;;5074293;28;20443;-80
2023/09/06 03:44:49;;;;;;;3.80;3.50;;;;;;;;;;5074218;28;20469;-81
2023/09/06 03:47:16;;;;;;;3.70;3.40;;;;;;;;;;5073916;28;20383;-81
2023/09/06 03:49:43;;;;;;;3.88;3.53;;;;;;;;;;5074427;28;20403;-81
2023/09/06 03:52:10;;;;;;;3.70;3.40;;;;;;;;;;5074725;28;20383;-80
2023/09/06 03:54:37;;;;;;;3.10;2.80;;;;;;;;;;5074540;28;20442;-81
2023/09/06 03:57:12;;;;;;;3.50;3.20;;;;;;;;;;5074237;28;20471;-81
2023/09/06 03:59:40;;;;;;;4.00;3.60;;;;;;;;;;5073950;28;20784;-81
2023/09/06 04:02:07;;;;;;;3.45;3.17;;;;;;;;;;5074484;28;20443;-81
2023/09/06 04:04:34;;;;;;;3.80;3.50;;;;;;;;;;5075202;28;20796;-81
2023/09/06 04:07:00;;;;;;;4.40;3.33;;;;;;;;;;5074978;28;20742;-81
2023/09/06 04:09:30;;;;;;;4.13;3.80;;;;;;;;;;5074285;28;20498;-81
2023/09/06 04:11:59;;;;;;;4.47;3.40;;;;;;;;;;5073818;28;20380;-81
2023/09/06 04:14:25;;;;;;;3.80;3.50;;;;;;;;;;5074147;28;20437;-81
2023/09/06 04:16:51;;;;;;;3.70;3.40;;;;;;;;;;5074563;28;20391;-81
2023/09/06 04:19:17;;;;;;;3.92;3.63;;;;;;;;;;5074506;28;20380;-81
2023/09/06 04:21:47;;;;;;;4.20;3.70;;;;;;;;;;5072267;28;20504;-81
2023/09/06 04:24:14;;;;;;;4.20;3.90;;;;;;;;;;5073537;28;20451;-82
2023/09/06 04:26:40;;;;;;;4.57;4.00;;;;;;;;;;5074066;28;20386;-80
2023/09/06 04:29:06;;;;;;;4.03;3.72;;;;;;;;;;5073237;28;20768;-80
2023/09/06 04:31:32;;;;;;;4.20;3.90;;;;;;;;;;5073637;28;20390;-81
2023/09/06 04:34:04;;;;;;;4.15;3.85;;;;;;;;;;5073438;28;20395;-80
2023/09/06 04:36:30;;;;;;;4.50;4.10;;;;;;;;;;5074016;28;20418;-81
2023/09/06 04:38:56;;;;;;;6.30;3.80;;;;;;;;;;5073427;28;20841;-81
2023/09/06 04:41:22;;;;;;;3.70;3.40;;;;;;;;;;5073614;28;20383;-81
2023/09/06 04:43:48;;;;;;;4.30;4.00;;;;;;;;;;5073503;28;20407;-82
2023/09/06 04:46:14;;;;;;;4.90;3.80;;;;;;;;;;5054976;28;20408;-81
2023/09/06 04:48:40;;;;;;;4.60;4.20;;;;;;;;;;5074401;28;20441;-81
2023/09/06 04:51:06;;;;;;;4.00;3.60;;;;;;;;;;5074497;28;20444;-81
2023/09/06 04:53:33;;;;;;;3.78;3.47;;;;;;;;;;5073567;28;20387;-81
2023/09/06 04:56:02;;;;;;;4.43;4.03;;;;;;;;;;5086087;28;20374;-81
2023/09/06 04:58:29;;;;;;;3.80;3.50;;;;;;;;;;5072845;28;20391;-81
2023/09/06 05:00:55;;;;;;;3.90;3.60;;;;;;;;;;5073399;28;20372;-81
2023/09/06 05:03:22;;;;;;;4.05;3.65;;;;;;;;;;5073105;28;20456;-81
2023/09/06 05:05:48;;;;;;;4.32;3.58;;;;;;;;;;5073166;28;20391;-81
2023/09/06 05:08:14;;;;;;;4.75;4.13;;;;;;;;;;5073317;28;20392;-81
2023/09/06 05:10:40;;;;;;;3.80;3.50;;;;;;;;;;5055177;28;20396;-81
2023/09/06 05:13:11;;;;;;;3.90;3.60;;;;;;;;;;5072841;28;20380;-81
2023/09/06 05:15:38;;;;;;;5.20;3.63;;;;;;;;;;5060066;28;20741;-81
2023/09/06 05:18:05;;;;;;;5.65;3.80;;;;;;;;;;5073276;28;20397;-81
2023/09/06 05:20:35;;;;;;;6.65;3.97;;;;;;;;;;5072999;28;20462;-81
2023/09/06 05:23:01;;;;;;;5.88;4.43;;;;;;;;;;5072820;28;20408;-81
2023/09/06 05:25:27;;;;;;;4.55;3.92;;;;;;;;;;5072669;28;20375;-81
2023/09/06 05:27:58;;;;;;;4.37;3.93;;;;;;;;;;5081172;28;20419;-81
2023/09/06 05:30:24;;;;;;;5.18;4.78;;;;;;;;;;5072871;28;20873;-81
2023/09/06 05:32:50;;;;;;;4.88;4.38;;;;;;;;;;5059403;28;20441;-82
2023/09/06 05:35:16;;;;;;;4.32;3.92;;;;;;;;;;5073135;28;20388;-82
2023/09/06 05:37:42;;;;;;;4.43;3.95;;;;;;;;;;5072745;28;20384;-82
2023/09/06 05:40:12;;;;;;;4.55;4.15;;;;;;;;;;5075244;28;20411;-82
2023/09/06 05:42:38;;;;;;;4.25;3.95;;;;;;;;;;5073307;28;20462;-82
2023/09/06 05:45:04;;;;;;;4.43;4.10;;;;;;;;;;5073223;28;20960;-82
2023/09/06 05:47:30;;;;;;;4.55;4.15;;;;;;;;;;5072980;28;20408;-82
2023/09/06 05:49:57;;;;;;;4.22;3.85;;;;;;;;;;5072491;28;20382;-82
2023/09/06 05:52:23;;;;;;;4.60;4.20;;;;;;;;;;5072730;28;20387;-82
2023/09/06 05:54:49;;;;;;;4.38;3.97;;;;;;;;;;5072584;28;20413;-81
2023/09/06 05:57:16;;;;;;;4.68;4.13;;;;;;;;;;5072652;28;20825;-82
2023/09/06 05:59:42;;;;;;;4.57;4.18;;;;;;;;;;5086730;28;20396;-82
2023/09/06 06:02:08;;;;;;;4.07;3.78;;;;;;;;;;5072490;28;20399;-82
2023/09/06 06:04:35;;;;;;;4.63;4.22;;;;;;;;;;5086061;28;20414;-82
2023/09/06 06:07:01;;;;;;;4.43;4.10;;;;;;;;;;5087856;28;20447;-81
2023/09/06 06:09:27;;;;;;;4.93;4.38;;;;;;;;;;5074223;28;20426;-81
2023/09/06 06:11:53;;;;;;;5.00;4.50;;;;;;;;;;5079886;28;20443;-81
2023/09/06 06:14:19;;;;;;;4.90;4.53;;;;;;;;;;5087761;28;20374;-81
2023/09/06 06:16:46;;;;;;;4.80;4.30;;;;;;;;;;5095687;28;20398;-81
2023/09/06 06:19:12;;;;;;;5.53;4.47;;;;;;;;;;5087762;28;20802;-81
2023/09/06 06:21:39;;;;;;;4.93;4.53;;;;;;;;;;5074768;28;20711;-81
2023/09/06 06:24:08;;;;;;;5.82;4.47;;;;;;;;;;5076007;28;20419;-81
2023/09/06 06:26:34;;;;;;;5.17;4.40;;;;;;;;;;5084012;28;20386;-81
2023/09/06 06:29:01;;;;;;;4.32;3.92;;;;;;;;;;5079982;28;20391;-82
2023/09/06 06:31:27;;;;;;;4.68;4.38;;;;;;;;;;5074371;28;20426;-82
2023/09/06 06:33:53;;;;;;;5.10;4.30;;;;;;;;;;5075157;28;20395;-82
2023/09/06 06:36:19;;;;;;;4.90;4.20;;;;;;;;;;5057404;28;20383;-82
2023/09/06 06:38:46;;;;;;;6.05;4.97;;;;;;;;;;5057713;28;20467;-81
2023/09/06 06:41:22;;;;;;;4.87;4.40;;;;;;;;;;5074893;28;20404;-82
2023/09/06 06:43:48;;;;;;;5.18;4.65;;;;;;;;;;5075440;28;20407;-82
2023/09/06 06:46:24;;;;;;;4.78;4.35;;;;;;;;;;5075677;28;20388;-81
2023/09/06 06:48:51;;;;;;;5.07;4.53;;;;;;;;;;5059440;28;20384;-82
2023/09/06 06:51:16;;;;;;;5.05;4.60;;;;;;;;;;5076152;28;20383;-84
2023/09/06 06:53:42;;;;;;;5.57;5.07;;;;;;;;;;5077448;28;20387;-84
2023/09/06 06:56:08;;;;;;;5.00;4.50;;;;;;;;;;5061340;28;20383;-83
2023/09/06 06:58:34;;;;;;;5.07;4.60;;;;;;;;;;5058370;28;20376;-83
2023/09/06 07:01:00;;;;;;;5.40;4.97;;;;;;;;;;5060991;28;20387;-83
2023/09/06 07:03:28;;;;;;;5.63;5.18;;;;;;;;;;5057853;28;20935;-83
2023/09/06 07:05:55;;;;;;;4.93;4.53;;;;;;;;;;5076480;28;20394;-83
2023/09/06 07:08:23;;;;;;;5.43;5.00;;;;;;;;;;5077710;28;20414;-83
2023/09/06 07:10:49;;;;;;;5.22;4.72;;;;;;;;;;5059227;28;20392;-84
2023/09/06 07:13:15;;;;;;;5.68;5.18;;;;;;;;;;5077099;28;20406;-83
2023/09/06 07:15:43;;;;;;;5.47;4.97;;;;;;;;;;5074929;28;20448;-83
2023/09/06 07:18:09;;;;;;;5.32;4.85;;;;;;;;;;5075627;28;20386;-83
2023/09/06 07:20:35;;;;;;;5.13;4.63;;;;;;;;;;5073583;28;20387;-83
2023/09/06 07:23:01;;;;;;;5.78;5.30;;;;;;;;;;5075345;28;20376;-83
2023/09/06 07:25:28;;;;;;;6.10;5.60;;;;;;;;;;5058925;28;20388;-84
2023/09/06 07:27:54;;;;;;;5.80;5.20;;;;;;;;;;5092991;28;20411;-83
2023/09/06 07:30:20;;;;;;;5.55;5.05;;;;;;;;;;5076857;28;20459;-83
2023/09/06 07:32:46;;;;;;;5.68;5.10;;;;;;;;;;5057374;28;20427;-83
2023/09/06 07:35:13;;;;;;;5.55;5.15;;;;;;;;;;5057299;28;20499;-83
2023/09/06 07:37:41;;;;;;;5.15;4.75;;;;;;;;;;5056833;28;20388;-83
2023/09/06 07:40:08;;;;;;;6.43;5.10;;;;;;;;;;5074963;28;20372;-84
2023/09/06 07:42:37;;;;;;;5.82;5.22;;;;;;;;;;5056824;28;20388;-83
2023/09/06 07:45:03;;;;;;;5.15;4.70;;;;;;;;;;5056755;28;20549;-83
2023/09/06 07:47:29;;;;;;;5.28;4.88;;;;;;;;;;5074668;28;20384;-83
2023/09/06 07:49:55;;;;;;;6.82;4.97;;;;;;;;;;5056574;28;20475;-83
2023/09/06 07:52:21;;;;;;;5.17;4.77;;;;;;;;;;5059601;28;20434;-84
2023/09/06 07:54:47;;;;;;;6.20;5.20;;;;;;;;;;5060728;28;20404;-83
2023/09/06 07:57:13;;;;;;;7.35;4.80;;;;;;;;;;5056958;28;20450;-83
2023/09/06 07:59:39;;;;;;;5.53;5.10;;;;;;;;;;5057599;28;20387;-83
2023/09/06 08:02:06;;;;;;;5.13;4.63;;;;;;;;;;5056933;28;20423;-83
2023/09/06 08:04:32;;;;;;;4.93;4.53;;;;;;;;;;5056288;28;20400;-83
2023/09/06 08:06:58;;;;;;;5.45;5.00;;;;;;;;;;5057276;28;20388;-85
2023/09/06 08:09:24;;;;;;;5.60;4.90;;;;;;;;;;5075673;28;20391;-84
2023/09/06 08:11:50;;;;;;;5.43;5.03;;;;;;;;;;5074523;28;20388;-83
2023/09/06 08:14:16;;;;;;;6.00;5.40;;;;;;;;;;5075860;28;20490;-84
2023/09/06 08:16:43;;;;;;;5.13;4.63;;;;;;;;;;5075399;28;20387;-84
2023/09/06 08:19:09;;;;;;;5.70;5.10;;;;;;;;;;5076469;28;20467;-84
2023/09/06 08:21:35;;;;;;;5.10;4.70;;;;;;;;;;5075431;28;20457;-84
2023/09/06 08:24:02;;;;;;;5.10;4.60;;;;;;;;;;5076410;28;20423;-84
2023/09/06 08:26:28;;;;;;;5.00;4.60;;;;;;;;;;5085098;28;20416;-84
2023/09/06 08:28:54;;;;;;;5.13;4.45;;;;;;;;;;5083702;28;20434;-84
2023/09/06 08:31:20;;;;;;;6.07;4.90;;;;;;;;;;5077766;28;20384;-84
2023/09/06 08:33:47;;;;;;;5.20;4.50;;;;;;;;;;5078002;28;20391;-84
2023/09/06 08:36:13;;;;;;;4.93;4.50;;;;;;;;;;5077254;28;20394;-84
2023/09/06 08:38:42;;;;;;;6.65;4.43;;;;;;;;;;5077365;28;20432;-83
2023/09/06 08:41:09;;;;;;;4.68;4.28;;;;;;;;;;5077599;28;20372;-83
2023/09/06 08:43:36;;;;;;;6.03;4.35;;;;;;;;;;5076782;28;20438;-84
2023/09/06 08:46:06;;;;;;;5.25;4.40;;;;;;;;;;5076776;28;20466;-84
2023/09/06 08:48:32;;;;;;;5.07;4.57;;;;;;;;;;5077100;28;20394;-84
2023/09/06 08:50:59;;;;;;;5.05;4.45;;;;;;;;;;5077029;28;20447;-84
2023/09/06 08:53:26;;;;;;;5.38;4.40;;;;;;;;;;5077151;28;20383;-84
2023/09/06 08:55:52;;;;;;;7.00;4.80;;;;;;;;;;5077222;28;20395;-84
2023/09/06 08:58:18;;;;;;;4.78;4.28;;;;;;;;;;5077485;28;20372;-84
2023/09/06 09:00:46;;;;;;;6.07;4.75;;;;;;;;;;5077391;28;20475;-84
2023/09/06 09:03:12;;;;;;;5.53;4.25;;;;;;;;;;5077315;28;20391;-84
2023/09/06 09:05:38;;;;;;;4.40;4.00;;;;;;;;;;5076393;28;20388;-84
2023/09/06 09:08:04;;;;;;;5.50;4.32;;;;;;;;;;5077246;28;20761;-84
2023/09/06 09:10:31;;;;;;;5.07;4.40;;;;;;;;;;5076370;28;20380;-84
2023/09/06 09:12:59;;;;;;;7.22;4.72;;;;;;;;;;5076378;28;20383;-84
2023/09/06 09:15:28;;;;;;;4.93;4.20;;;;;;;;;;5076717;28;20394;-84
2023/09/06 09:17:54;;;;;;;7.53;4.13;;;;;;;;;;5076972;28;20483;-84
2023/09/06 09:20:20;;;;;;;5.78;3.92;;;;;;;;;;5076903;28;20390;-84
2023/09/06 09:22:47;;;;;;;5.47;4.00;;;;;;;;;;5076764;28;20430;-84
2023/09/06 09:25:16;;;;;;;6.30;3.90;;;;;;;;;;5077105;28;20480;-84
2023/09/06 09:27:46;;;;;;;5.50;4.20;;;;;;;;;;5091241;28;20429;-84
2023/09/06 09:30:14;;;;;;;6.53;4.07;;;;;;;;;;5076714;28;20841;-84
2023/09/06 09:32:40;;;;;;;5.93;4.25;;;;;;;;;;5076762;28;20386;-84
2023/09/06 09:35:10;;;;;;;4.78;4.25;;;;;;;;;;5076414;28;20408;-84
2023/09/06 09:37:36;;;;;;;6.80;4.32;;;;;;;;;;5076448;28;20470;-83
2023/09/06 09:40:16;;;;;;;4.78;4.38;;;;;;;;;;5076440;28;20892;-84
2023/09/06 09:42:55;;;;;;;4.10;3.80;;;;;;;;;;5076186;28;20382;-84
2023/09/06 09:45:23;;;;;;;5.82;4.35;;;;;;;;;;5079485;28;20394;-84
2023/09/06 09:47:49;;;;;;;5.00;4.50;;;;;;;;;;5080046;28;20435;-84
2023/09/06 09:50:16;;;;;;;4.53;4.10;;;;;;;;;;5062490;28;20407;-84
2023/09/06 09:52:44;;;;;;;6.30;4.00;;;;;;;;;;5080465;28;20388;-84
2023/09/06 09:55:11;;;;;;;4.63;4.05;;;;;;;;;;5080302;28;20372;-83
2023/09/06 09:57:37;;;;;;;5.60;4.47;;;;;;;;;;5080397;28;20388;-84
2023/09/06 10:00:06;;;;;;;5.17;4.63;;;;;;;;;;5080192;28;20441;-84
2023/09/06 10:02:35;;;;;;;4.90;4.18;;;;;;;;;;5080516;28;20376;-84
2023/09/06 10:05:02;;;;;;;4.40;4.05;;;;;;;;;;5080281;28;20503;-84
2023/09/06 10:07:30;;;;;;;4.73;3.70;;;;;;;;;;5080520;28;20383;-84
2023/09/06 10:09:57;;;;;;;4.40;4.00;;;;;;;;;;5080141;28;20387;-84
2023/09/06 10:12:24;;;;;;;5.30;4.13;;;;;;;;;;5080485;28;20938;-84
2023/09/06 10:14:51;;;;;;;5.05;4.00;;;;;;;;;;5081109;28;20469;-84
2023/09/06 10:17:17;;;;;;;6.20;4.00;;;;;;;;;;5081021;28;20383;-84
2023/09/06 10:19:43;;;;;;;5.75;4.38;;;;;;;;;;5080842;28;20383;-84
2023/09/06 10:22:13;;;;;;;4.38;3.97;;;;;;;;;;5098603;28;20385;-85
2023/09/06 10:24:43;;;;;;;6.57;4.10;;;;;;;;;;5100560;28;20406;-84
2023/09/06 10:27:12;;;;;;;5.03;3.90;;;;;;;;;;5101092;28;20386;-84
2023/09/06 10:29:49;;;;;;;4.57;4.10;;;;;;;;;;5080381;28;20716;-84
2023/09/06 10:32:15;;;;;;;5.55;4.57;;;;;;;;;;5093642;28;20386;-84
2023/09/06 10:34:45;;;;;;;5.43;3.85;;;;;;;;;;5080608;28;20383;-84
2023/09/06 10:37:11;;;;;;;4.57;4.00;;;;;;;;;;5080557;28;20376;-84
2023/09/06 10:39:51;;;;;;;4.40;4.00;;;;;;;;;;5080342;28;20392;-84
2023/09/06 10:42:17;;;;;;;5.57;3.67;;;;;;;;;;5080351;28;20375;-84
2023/09/06 10:44:56;;;;;;;4.43;4.03;;;;;;;;;;5079788;28;20411;-84
2023/09/06 10:47:31;;;;;;;5.10;3.78;;;;;;;;;;5080312;28;20388;-84
2023/09/06 10:50:15;;;;;;;4.72;4.22;;;;;;;;;;5081176;28;20442;-84
2023/09/06 10:52:41;;;;;;;5.00;4.03;;;;;;;;;;5074625;28;20376;-84
2023/09/06 10:55:13;;;;;;;3.88;3.58;;;;;;;;;;5060776;28;20869;-84
2023/09/06 10:57:48;;;;;;;6.57;3.53;;;;;;;;;;5079484;28;20376;-84
2023/09/06 11:00:18;;;;;;;4.50;3.97;;;;;;;;;;5079561;28;20387;-84
2023/09/06 11:02:44;;;;;;;4.78;4.00;;;;;;;;;;5079095;28;20384;-85
2023/09/06 11:05:16;;;;;;;3.70;3.40;;;;;;;;;;5081840;28;20407;-84
2023/09/06 11:07:43;;;;;;;5.80;3.50;;;;;;;;;;5079520;28;20376;-84
2023/09/06 11:10:09;;;;;;;4.85;3.70;;;;;;;;;;5059864;28;20386;-84
2023/09/06 11:12:36;;;;;;;4.43;4.03;;;;;;;;;;5077365;28;20383;-84
2023/09/06 11:15:02;;;;;;;4.00;3.45;;;;;;;;;;5075237;28;20387;-84
2023/09/06 11:17:28;;;;;;;3.88;3.50;;;;;;;;;;5077133;28;20436;-85
2023/09/06 11:19:55;;;;;;;5.10;3.60;;;;;;;;;;5078171;28;20891;-85
2023/09/06 11:22:21;;;;;;;3.95;3.60;;;;;;;;;;5077157;28;20459;-85
2023/09/06 11:24:48;;;;;;;5.68;3.65;;;;;;;;;;5076770;28;20458;-85
2023/09/06 11:27:19;;;;;;;3.70;3.40;;;;;;;;;;5091190;28;20381;-85
2023/09/06 11:29:45;;;;;;;4.35;3.80;;;;;;;;;;5062632;28;20384;-85
2023/09/06 11:32:12;;;;;;;4.85;4.05;;;;;;;;;;5078685;28;20376;-85
2023/09/06 11:34:42;;;;;;;4.32;3.92;;;;;;;;;;5077589;28;20394;-85
2023/09/06 11:37:10;;;;;;;4.47;3.38;;;;;;;;;;5075791;28;20387;-85
2023/09/06 11:39:39;;;;;;;3.97;3.53;;;;;;;;;;5076146;28;20379;-85
2023/09/06 11:42:08;;;;;;;3.88;3.47;;;;;;;;;;5075707;28;20821;-84
2023/09/06 11:44:34;;;;;;;4.47;3.65;;;;;;;;;;5075351;28;20475;-85
2023/09/06 11:47:00;;;;;;;4.20;3.80;;;;;;;;;;5076068;28;20909;-85
2023/09/06 11:49:26;;;;;;;3.67;3.38;;;;;;;;;;5075690;28;20849;-85
2023/09/06 11:51:53;;;;;;;3.75;3.45;;;;;;;;;;5074904;28;20418;-84
2023/09/06 11:54:24;;;;;;;5.53;3.17;;;;;;;;;;5075136;28;20412;-85
2023/09/06 11:56:51;;;;;;;3.70;3.40;;;;;;;;;;5074753;28;20391;-85
2023/09/06 11:59:17;;;;;;;3.70;3.25;;;;;;;;;;5075834;28;20392;-85
2023/09/06 12:01:44;;;;;;;3.55;3.20;;;;;;;;;;5073300;28;20474;-85
2023/09/06 12:04:18;;;;;;;4.63;3.60;;;;;;;;;;5073460;28;20412;-85
2023/09/06 12:06:44;;;;;;;3.72;3.30;;;;;;;;;;5073030;28;20379;-84
2023/09/06 12:09:15;;;;;;;7.28;3.53;;;;;;;;;;5073259;28;20738;-84
2023/09/06 12:11:41;;;;;;;3.55;3.25;;;;;;;;;;5072961;28;20722;-84
2023/09/06 12:14:10;;;;;;;4.32;3.22;;;;;;;;;;5064616;28;20831;-84
2023/09/06 12:16:36;;;;;;;3.97;3.30;;;;;;;;;;5038410;28;20391;-85
2023/09/06 12:19:03;;;;;;;3.78;3.47;;;;;;;;;;5073429;28;20375;-85
2023/09/06 12:21:29;;;;;;;3.67;3.38;;;;;;;;;;5072876;28;20737;-85
2023/09/06 12:23:55;;;;;;;6.03;3.40;;;;;;;;;;5072750;28;20419;-85
2023/09/06 12:26:21;;;;;;;3.60;3.30;;;;;;;;;;5079664;28;20366;-85
2023/09/06 12:28:50;;;;;;;3.88;3.50;;;;;;;;;;5062410;28;20372;-84
2023/09/06 12:31:16;;;;;;;3.70;3.40;;;;;;;;;;5072628;28;20376;-84
2023/09/06 12:33:44;;;;;;;3.80;3.15;;;;;;;;;;5073034;28;20483;-85
2023/09/06 12:36:11;;;;;;;3.60;3.10;;;;;;;;;;5076393;28;20847;-85
2023/09/06 12:38:37;;;;;;;3.72;3.33;;;;;;;;;;5083560;28;20463;-85
2023/09/06 12:41:06;;;;;;;3.38;3.10;;;;;;;;;;5072596;28;20427;-85
2023/09/06 12:43:36;;;;;;;4.00;3.20;;;;;;;;;;5073254;28;20399;-84
2023/09/06 12:46:11;;;;;;;3.45;3.05;;;;;;;;;;5072295;28;20433;-85
2023/09/06 12:48:37;;;;;;;3.65;3.35;;;;;;;;;;5072649;28;20474;-84
2023/09/06 12:51:06;;;;;;;4.30;3.22;;;;;;;;;;5072701;28;20422;-84
2023/09/06 12:53:32;;;;;;;3.22;2.92;;;;;;;;;;5055032;28;20387;-84
2023/09/06 12:55:58;;;;;;;3.95;3.15;;;;;;;;;;5055207;28;20386;-84
2023/09/06 12:58:24;;;;;;;3.60;3.30;;;;;;;;;;5055061;28;20388;-85
2023/09/06 13:00:50;;;;;;;3.63;3.30;;;;;;;;;;5073035;28;20391;-85
2023/09/06 13:03:17;;;;;;;3.80;3.40;;;;;;;;;;5072966;28;20394;-85
2023/09/06 13:05:43;;;;;;;3.33;3.03;;;;;;;;;;5073246;28;20841;-85
2023/09/06 13:08:09;;;;;;;3.00;2.75;;;;;;;;;;5073194;28;20380;-85
2023/09/06 13:10:36;;;;;;;2.75;2.55;;;;;;;;;;5073224;28;20765;-85
2023/09/06 13:13:02;;;;;;;3.33;3.05;;;;;;;;;;5072444;28;20388;-85
2023/09/06 13:15:27;;;;;;;3.33;3.10;;;;;;;;;;5072533;28;20387;-85
2023/09/06 13:17:54;;;;;;;3.50;3.03;;;;;;;;;;5072229;28;20391;-85
2023/09/06 13:20:20;;;;;;;3.40;3.10;;;;;;;;;;5072256;28;20402;-85
2023/09/06 13:22:45;;;;;;;3.50;3.20;;;;;;;;;;5073066;28;20392;-85
2023/09/06 13:25:11;;;;;;;3.17;2.88;;;;;;;;;;5072651;28;20881;-86
2023/09/06 13:27:44;;;;;;;2.90;2.55;;;;;;;;;;5087312;28;20417;-85
2023/09/06 13:30:10;;;;;;;3.20;3.00;;;;;;;;;;5073065;28;20380;-85
2023/09/06 13:32:36;;;;;;;4.80;2.95;;;;;;;;;;5054927;28;20388;-85
2023/09/06 13:35:04;;;;;;;3.28;2.97;;;;;;;;;;5072925;28;20383;-85
2023/09/06 13:37:31;;;;;;;4.43;3.05;;;;;;;;;;5073235;28;20482;-85
2023/09/06 13:39:57;;;;;;;4.25;2.70;;;;;;;;;;5074424;28;20411;-86
2023/09/06 13:42:23;;;;;;;3.33;2.80;;;;;;;;;;5056002;28;20406;-85
2023/09/06 13:44:50;;;;;;;3.77;3.47;;;;;;;;;;5072973;28;20506;-85
2023/09/06 13:47:17;;;;;;;3.10;2.80;;;;;;;;;;5055786;28;20911;-85
2023/09/06 13:49:43;;;;;;;4.03;3.05;;;;;;;;;;5074172;28;20383;-85
2023/09/06 13:52:09;;;;;;;3.47;2.58;;;;;;;;;;5074079;28;20372;-85
2023/09/06 13:54:35;;;;;;;3.70;3.40;;;;;;;;;;5073477;28;20402;-85
2023/09/06 13:57:03;;;;;;;3.72;3.03;;;;;;;;;;5073698;28;20842;-85
2023/09/06 13:59:29;;;;;;;4.17;2.80;;;;;;;;;;5055522;28;20739;-85
2023/09/06 14:01:55;;;;;;;3.33;2.85;;;;;;;;;;5073239;28;20493;-85
2023/09/06 14:04:21;;;;;;;4.20;3.28;;;;;;;;;;5073253;28;20399;-85
2023/09/06 14:06:47;;;;;;;4.10;3.00;;;;;;;;;;5072867;28;20398;-85
2023/09/06 14:09:13;;;;;;;3.72;3.33;;;;;;;;;;5073324;28;20376;-86
2023/09/06 14:11:39;;;;;;;3.50;3.20;;;;;;;;;;5073506;28;20380;-85
2023/09/06 14:14:05;;;;;;;3.97;3.03;;;;;;;;;;5073689;28;20392;-85
2023/09/06 14:16:31;;;;;;;3.80;3.50;;;;;;;;;;5073261;28;20393;-85
2023/09/06 14:18:58;;;;;;;5.20;3.75;;;;;;;;;;5073369;28;20387;-85
2023/09/06 14:21:24;;;;;;;4.13;3.25;;;;;;;;;;5072287;28;20414;-85
2023/09/06 14:23:50;;;;;;;3.17;2.97;;;;;;;;;;5073340;28;20490;-85
2023/09/06 14:26:16;;;;;;;3.03;2.80;;;;;;;;;;5080571;28;20382;-85
2023/09/06 14:28:42;;;;;;;4.05;3.10;;;;;;;;;;5082515;28;20441;-85
2023/09/06 14:31:12;;;;;;;3.50;3.20;;;;;;;;;;5076450;28;20391;-85
2023/09/06 14:33:39;;;;;;;3.00;2.80;;;;;;;;;;5077868;28;20414;-85
2023/09/06 14:36:05;;;;;;;4.23;2.90;;;;;;;;;;5076795;28;20814;-85
2023/09/06 14:38:31;;;;;;;3.50;3.20;;;;;;;;;;5059007;28;20399;-85
2023/09/06 14:40:57;;;;;;;3.50;3.20;;;;;;;;;;5076512;28;20429;-85
2023/09/06 14:43:24;;;;;;;4.60;3.13;;;;;;;;;;5075999;28;20387;-83